Time;durP1;ratioP1;P1;durP2;ratioP2;P2;SDS_P1;SDS_P2;PMS_P1;PMS_P2;Temp;Humidity;BMP_temperature;BMP_pressure;BME280_temperature;BME280_humidity;BME280_pressure;Samples;Min_cycle;Max_cycle;Signal;HPM_P1;HPM_P2
2020/12/05 00:02:18;;;;;;;43.20;21.47;;;3.40;89.30;;;;;;5026717;28;20173;-73
2020/12/05 00:04:44;;;;;;;48.78;22.48;;;3.50;89.30;;;;;;5019068;28;20954;-76
2020/12/05 00:07:09;;;;;;;42.80;20.40;;;3.50;89.30;;;;;;5036056;28;20296;-75
2020/12/05 00:09:35;;;;;;;43.30;20.00;;;3.50;89.50;;;;;;5033998;28;20306;-75
2020/12/05 00:12:02;;;;;;;47.50;22.23;;;3.60;88.90;;;;;;5012202;28;20185;-74
2020/12/05 00:14:28;;;;;;;48.95;21.67;;;3.70;88.00;;;;;;5012342;28;20413;-74
2020/12/05 00:16:54;;;;;;;52.00;22.03;;;3.60;87.70;;;;;;5030930;28;20192;-75
2020/12/05 00:19:20;;;;;;;43.63;21.10;;;3.50;88.00;;;;;;5030514;28;20237;-73
2020/12/05 00:21:46;;;;;;;44.97;20.37;;;3.50;88.60;;;;;;5022888;28;20190;-76
2020/12/05 00:24:11;;;;;;;52.40;24.65;;;3.50;88.60;;;;;;5026333;28;20247;-74
2020/12/05 00:26:37;;;;;;;48.63;22.00;;;3.60;88.60;;;;;;5029806;28;20684;-73
2020/12/05 00:29:03;;;;;;;48.93;20.73;;;3.60;88.00;;;;;;5031268;28;20205;-74
2020/12/05 00:31:28;;;;;;;44.20;20.80;;;3.60;87.30;;;;;;5031480;28;20209;-75
2020/12/05 00:33:54;;;;;;;49.97;21.43;;;3.60;87.10;;;;;;5031271;28;20189;-75
2020/12/05 00:36:20;;;;;;;53.97;24.17;;;3.60;87.40;;;;;;5017917;28;20216;-74
2020/12/05 00:38:46;;;;;;;47.77;22.27;;;3.60;87.30;;;;;;5030945;28;20658;-72
2020/12/05 00:41:17;;;;;;;49.38;20.38;;;3.60;87.60;;;;;;5022612;28;20277;-72
2020/12/05 00:43:43;;;;;;;46.13;21.15;;;3.60;87.40;;;;;;5023517;28;20201;-73
2020/12/05 00:46:08;;;;;;;50.23;22.57;;;3.60;87.30;;;;;;5016708;28;20185;-74
2020/12/05 00:48:35;;;;;;;43.85;20.02;;;3.60;87.40;;;;;;5029542;28;20244;-75
2020/12/05 00:51:01;;;;;;;41.30;19.83;;;3.70;87.00;;;;;;5024280;28;20240;-74
2020/12/05 00:53:26;;;;;;;47.07;20.70;;;3.70;86.90;;;;;;5035978;28;20200;-74
2020/12/05 00:55:52;;;;;;;51.73;23.53;;;3.70;87.10;;;;;;5036619;28;20340;-74
2020/12/05 00:58:18;;;;;;;46.07;20.70;;;3.80;87.10;;;;;;5035033;28;20189;-74
2020/12/05 01:00:43;;;;;;;55.10;22.43;;;3.70;87.10;;;;;;5030024;28;20217;-75
2020/12/05 01:03:09;;;;;;;46.17;21.00;;;3.80;87.30;;;;;;5029722;28;20331;-75
2020/12/05 01:05:36;;;;;;;47.50;22.47;;;3.80;87.30;;;;;;5028547;28;20208;-74
2020/12/05 01:08:06;;;;;;;54.67;22.60;;;3.80;87.40;;;;;;5028034;28;20475;-75
2020/12/05 01:10:33;;;;;;;47.85;22.00;;;3.80;87.60;;;;;;5029606;28;20295;-75
2020/12/05 01:13:01;;;;;;;60.15;23.42;;;3.70;87.60;;;;;;5016321;28;20189;-74
2020/12/05 01:15:31;;;;;;;47.85;21.90;;;3.70;88.00;;;;;;5029629;28;20814;-75
2020/12/05 01:17:56;;;;;;;48.15;22.77;;;3.60;88.70;;;;;;5029584;28;20199;-74
2020/12/05 01:20:22;;;;;;;35.60;19.50;;;3.50;89.30;;;;;;5030443;28;20656;-74
2020/12/05 01:22:48;;;;;;;53.20;23.23;;;3.60;89.70;;;;;;5029014;28;20200;-74
2020/12/05 01:25:14;;;;;;;50.65;22.67;;;3.60;90.10;;;;;;5032713;28;20193;-74
2020/12/05 01:27:40;;;;;;;42.80;20.07;;;3.50;90.30;;;;;;5029505;28;20254;-74
2020/12/05 01:30:06;;;;;;;42.53;22.65;;;3.50;90.90;;;;;;5033184;28;20213;-74
2020/12/05 01:32:31;;;;;;;48.67;21.50;;;3.70;91.20;;;;;;5037687;28;20181;-74
2020/12/05 01:34:57;;;;;;;49.00;22.17;;;3.70;91.30;;;;;;5034540;28;20209;-74
2020/12/05 01:37:23;;;;;;;44.50;21.30;;;3.80;91.70;;;;;;5029345;28;20207;-75
2020/12/05 01:39:49;;;;;;;41.77;20.53;;;3.70;92.00;;;;;;5029836;28;20213;-74
2020/12/05 01:42:14;;;;;;;45.77;20.10;;;3.70;92.50;;;;;;5027904;28;20189;-75
2020/12/05 01:44:40;;;;;;;48.20;22.93;;;3.70;92.80;;;;;;5030001;28;20246;-73
2020/12/05 01:47:06;;;;;;;46.90;20.33;;;3.70;93.10;;;;;;5028968;28;20284;-74
2020/12/05 01:49:32;;;;;;;64.87;21.40;;;3.80;93.40;;;;;;5028295;28;20209;-74
2020/12/05 01:52:00;;;;;;;40.83;18.67;;;3.80;93.30;;;;;;5030652;28;20826;-74
2020/12/05 01:54:26;;;;;;;45.05;22.10;;;3.90;93.60;;;;;;5021458;28;20429;-73
2020/12/05 01:57:00;;;;;;;42.83;20.98;;;3.90;94.10;;;;;;5026367;28;20410;-73
2020/12/05 01:59:26;;;;;;;44.45;20.65;;;3.90;94.80;;;;;;5020709;28;20280;-73
2020/12/05 02:01:56;;;;;;;45.50;21.63;;;3.90;95.10;;;;;;5032182;28;20193;-73
2020/12/05 02:04:22;;;;;;;43.92;19.90;;;3.90;95.60;;;;;;5031432;28;20316;-73
2020/12/05 02:07:00;;;;;;;41.70;20.40;;;3.90;95.90;;;;;;5029888;28;20676;-72
2020/12/05 02:09:34;;;;;;;45.20;20.27;;;3.90;96.20;;;;;;5029736;28;20672;-73
2020/12/05 02:12:07;;;;;;;46.25;20.58;;;3.80;96.50;;;;;;5029537;28;20181;-72
2020/12/05 02:14:36;;;;;;;37.88;16.88;;;3.70;96.60;;;;;;5026484;28;20569;-73
2020/12/05 02:17:06;;;;;;;35.17;16.70;;;3.60;97.00;;;;;;5017820;28;20189;-74
2020/12/05 02:19:51;;;;;;;35.83;15.98;;;3.60;97.00;;;;;;5028742;28;20213;-73
2020/12/05 02:22:40;;;;;;;38.92;20.10;;;3.50;97.20;;;;;;5028105;28;20219;-72
2020/12/05 02:25:06;;;;;;;41.72;18.23;;;3.40;97.20;;;;;;5031909;28;20184;-72
2020/12/05 02:27:34;;;;;;;39.03;18.40;;;3.50;97.40;;;;;;5029421;28;20221;-73
2020/12/05 02:30:00;;;;;;;34.10;15.88;;;3.40;97.60;;;;;;5022472;28;20476;-73
2020/12/05 02:32:26;;;;;;;34.22;16.13;;;3.40;97.80;;;;;;5032726;28;20208;-74
2020/12/05 02:34:52;;;;;;;42.13;20.17;;;3.30;98.00;;;;;;5033010;28;20691;-74
2020/12/05 02:37:22;;;;;;;41.77;20.50;;;3.40;98.10;;;;;;5031665;28;20428;-72
2020/12/05 02:39:49;;;;;;;38.90;18.27;;;3.30;98.10;;;;;;5025052;28;20622;-75
2020/12/05 02:42:15;;;;;;;34.90;17.30;;;3.30;98.30;;;;;;5026958;28;20189;-73
2020/12/05 02:44:49;;;;;;;40.53;18.50;;;3.30;98.20;;;;;;5033293;28;20616;-73
2020/12/05 02:47:15;;;;;;;30.40;15.07;;;3.20;98.20;;;;;;5032412;28;20290;-74
2020/12/05 02:49:41;;;;;;;34.25;17.77;;;3.10;98.20;;;;;;5032848;28;20208;-72
2020/12/05 02:52:06;;;;;;;37.37;16.60;;;3.00;98.20;;;;;;5031685;28;20185;-74
2020/12/05 02:54:32;;;;;;;35.20;16.20;;;2.90;98.20;;;;;;5034248;28;20195;-73
2020/12/05 02:57:02;;;;;;;32.47;16.80;;;2.90;98.50;;;;;;5017200;28;20196;-71
2020/12/05 02:59:28;;;;;;;33.38;16.27;;;2.80;98.60;;;;;;5028242;28;20447;-72
2020/12/05 03:01:55;;;;;;;36.00;16.27;;;2.80;98.70;;;;;;5032864;28;20247;-73
2020/12/05 03:04:20;;;;;;;38.20;16.35;;;2.70;98.70;;;;;;5020021;28;20669;-73
2020/12/05 03:06:46;;;;;;;32.20;15.10;;;2.80;98.90;;;;;;5029388;28;20216;-74
2020/12/05 03:09:12;;;;;;;32.33;15.50;;;2.80;99.00;;;;;;5031597;28;20213;-73
2020/12/05 03:11:38;;;;;;;30.75;14.55;;;2.70;98.90;;;;;;5013271;28;20194;-73
2020/12/05 03:14:04;;;;;;;30.40;14.17;;;2.70;99.00;;;;;;5034005;28;20729;-74
2020/12/05 03:16:30;;;;;;;27.00;15.57;;;2.70;99.10;;;;;;5041663;28;20433;-73
2020/12/05 03:18:56;;;;;;;31.40;14.50;;;2.70;99.20;;;;;;5031797;28;20201;-72
2020/12/05 03:21:21;;;;;;;31.07;14.70;;;2.70;99.40;;;;;;5032123;28;20212;-73
2020/12/05 03:23:47;;;;;;;31.37;14.40;;;2.80;99.60;;;;;;5032027;28;20185;-73
2020/12/05 03:26:13;;;;;;;26.00;13.50;;;2.80;99.70;;;;;;5033325;28;20432;-74
2020/12/05 03:28:39;;;;;;;31.15;15.48;;;2.90;99.80;;;;;;5039756;28;20216;-74
2020/12/05 03:31:06;;;;;;;29.70;13.95;;;3.00;99.80;;;;;;5039935;28;20239;-73
2020/12/05 03:33:34;;;;;;;24.75;13.02;;;3.10;99.80;;;;;;5032979;28;20181;-73
2020/12/05 03:36:00;;;;;;;25.77;14.00;;;3.10;99.70;;;;;;5030404;28;20921;-73
2020/12/05 03:38:26;;;;;;;27.90;13.77;;;3.10;99.50;;;;;;5035100;28;20220;-74
2020/12/05 03:40:52;;;;;;;31.83;15.10;;;3.10;99.40;;;;;;5038131;28;20217;-73
2020/12/05 03:43:17;;;;;;;27.40;13.53;;;3.10;99.20;;;;;;5038349;28;20556;-74
2020/12/05 03:45:43;;;;;;;28.93;15.03;;;3.00;99.00;;;;;;5037238;28;20646;-73
2020/12/05 03:48:12;;;;;;;28.77;14.17;;;2.90;98.90;;;;;;5035411;28;20212;-73
2020/12/05 03:50:41;;;;;;;34.22;16.15;;;2.90;98.80;;;;;;5032018;28;20205;-72
2020/12/05 03:53:07;;;;;;;34.47;15.18;;;2.90;99.00;;;;;;5030640;28;20272;-73
2020/12/05 03:55:33;;;;;;;27.60;14.65;;;3.00;99.20;;;;;;5026379;28;20194;-72
2020/12/05 03:58:01;;;;;;;35.03;16.00;;;3.00;99.30;;;;;;5011293;28;20201;-73
2020/12/05 04:00:30;;;;;;;29.88;14.55;;;3.00;99.40;;;;;;5011502;28;20206;-73
2020/12/05 04:02:55;;;;;;;28.98;12.55;;;3.10;99.40;;;;;;5024231;28;20664;-73
2020/12/05 04:05:21;;;;;;;26.97;13.77;;;3.20;99.30;;;;;;5024825;28;20237;-72
2020/12/05 04:07:47;;;;;;;30.27;13.83;;;3.20;99.20;;;;;;5023173;28;20467;-73
2020/12/05 04:10:13;;;;;;;28.87;13.00;;;3.30;99.10;;;;;;5031936;28;20209;-73
2020/12/05 04:12:38;;;;;;;21.97;12.63;;;3.20;99.10;;;;;;5032719;28;20269;-72
2020/12/05 04:15:05;;;;;;;28.17;13.73;;;3.30;99.20;;;;;;5031228;28;20268;-72
2020/12/05 04:17:30;;;;;;;27.95;13.88;;;3.20;99.00;;;;;;5035555;28;20279;-72
2020/12/05 04:19:56;;;;;;;23.70;12.70;;;3.30;99.00;;;;;;5030702;28;20634;-73
2020/12/05 04:22:22;;;;;;;27.50;13.30;;;3.30;99.00;;;;;;5031232;28;20193;-73
2020/12/05 04:24:48;;;;;;;27.23;13.57;;;3.40;99.10;;;;;;5030888;28;20485;-73
2020/12/05 04:27:14;;;;;;;26.53;12.60;;;3.40;99.00;;;;;;5032777;28;20240;-72
2020/12/05 04:29:39;;;;;;;23.83;11.67;;;3.40;98.90;;;;;;5021768;28;20205;-72
2020/12/05 04:32:05;;;;;;;27.77;12.27;;;3.50;98.80;;;;;;5038695;28;20469;-73
2020/12/05 04:34:31;;;;;;;26.60;11.47;;;3.50;98.50;;;;;;5030749;28;20250;-71
2020/12/05 04:36:57;;;;;;;23.80;11.20;;;3.50;98.50;;;;;;5030236;28;20189;-72
2020/12/05 04:39:22;;;;;;;22.93;11.93;;;3.50;98.40;;;;;;5030564;28;20209;-72
2020/12/05 04:41:48;;;;;;;24.57;12.57;;;3.60;98.30;;;;;;5029282;28;20597;-71
2020/12/05 04:44:15;;;;;;;25.30;11.50;;;3.60;98.10;;;;;;5029853;28;20296;-72
2020/12/05 04:46:42;;;;;;;24.63;11.02;;;3.60;98.00;;;;;;5029435;28;20691;-73
2020/12/05 04:49:08;;;;;;;23.92;12.10;;;3.50;97.90;;;;;;5030447;28;20606;-73
2020/12/05 04:51:38;;;;;;;22.55;12.80;;;3.50;98.00;;;;;;5030471;28;20667;-74
2020/12/05 04:54:05;;;;;;;21.35;11.23;;;3.40;98.00;;;;;;5028910;28;20649;-73
2020/12/05 04:56:36;;;;;;;23.63;11.20;;;3.40;98.10;;;;;;5029320;28;21003;-73
2020/12/05 04:59:09;;;;;;;22.15;10.13;;;3.40;98.10;;;;;;5030735;28;20201;-73
2020/12/05 05:01:37;;;;;;;23.75;10.75;;;3.40;98.00;;;;;;5032704;28;20188;-73
2020/12/05 05:04:04;;;;;;;23.35;11.50;;;3.30;98.00;;;;;;5022958;28;20598;-72
2020/12/05 05:06:30;;;;;;;23.52;12.35;;;3.30;97.90;;;;;;5034723;28;20185;-72
2020/12/05 05:08:56;;;;;;;23.65;11.15;;;3.20;97.80;;;;;;5038403;28;20209;-73
2020/12/05 05:11:25;;;;;;;25.33;12.63;;;3.10;97.90;;;;;;5035060;28;20679;-73
2020/12/05 05:13:58;;;;;;;23.10;10.65;;;3.10;98.00;;;;;;5030180;28;20513;-73
2020/12/05 05:16:26;;;;;;;28.88;12.85;;;3.10;98.30;;;;;;5029594;28;20193;-72
2020/12/05 05:18:52;;;;;;;21.00;10.70;;;3.00;98.30;;;;;;5030031;28;20201;-73
2020/12/05 05:21:40;;;;;;;25.83;12.23;;;3.00;98.30;;;;;;5026803;28;20559;-73
2020/12/05 05:24:17;;;;;;;20.80;10.98;;;3.00;98.70;;;;;;5009105;28;20433;-74
2020/12/05 05:26:45;;;;;;;22.20;11.38;;;3.00;99.00;;;;;;5015964;28;20830;-72
2020/12/05 05:29:28;;;;;;;18.27;10.85;;;3.10;99.20;;;;;;5029086;28;20203;-73
2020/12/05 05:34:27;;;;;;;16.85;9.82;;;3.20;99.30;;;;;;5027526;28;20621;-73
2020/12/05 05:36:53;;;;;;;20.03;9.73;;;3.20;99.30;;;;;;5028815;28;20234;-73
2020/12/05 05:39:19;;;;;;;19.60;10.20;;;3.20;99.10;;;;;;5029913;28;20340;-73
2020/12/05 05:41:50;;;;;;;16.60;8.48;;;3.30;99.00;;;;;;5030250;28;20660;-74
2020/12/05 05:44:19;;;;;;;20.88;10.45;;;3.30;98.70;;;;;;5029431;28;20363;-73
2020/12/05 05:46:50;;;;;;;16.27;9.27;;;3.30;98.60;;;;;;5029476;28;20196;-74
2020/12/05 05:49:30;;;;;;;18.95;9.55;;;3.30;98.60;;;;;;5030563;28;20196;-74
2020/12/05 05:52:04;;;;;;;14.68;8.30;;;3.30;98.70;;;;;;5030126;28;20177;-74
2020/12/05 05:54:33;;;;;;;16.92;8.40;;;3.30;98.50;;;;;;5030188;28;20196;-74
2020/12/05 05:57:10;;;;;;;14.18;7.63;;;3.40;98.40;;;;;;5029119;28;20177;-72
2020/12/05 05:59:44;;;;;;;14.68;7.65;;;3.40;98.50;;;;;;5033714;28;20216;-74
2020/12/05 06:02:14;;;;;;;15.63;7.85;;;3.40;98.20;;;;;;5036119;28;20676;-75
2020/12/05 06:04:45;;;;;;;14.25;7.65;;;3.40;98.10;;;;;;5032880;28;20755;-74
2020/12/05 06:07:17;;;;;;;14.57;7.47;;;3.40;98.00;;;;;;5032278;28;20632;-75
2020/12/05 06:09:51;;;;;;;16.85;8.13;;;3.50;97.90;;;;;;5032928;28;20213;-74
2020/12/05 06:12:22;;;;;;;13.88;7.20;;;3.40;97.80;;;;;;5031556;28;20189;-74
2020/12/05 06:14:49;;;;;;;15.98;8.13;;;3.50;97.80;;;;;;5032635;28;20209;-74
2020/12/05 06:17:18;;;;;;;13.73;7.10;;;3.50;97.60;;;;;;5032155;28;20186;-73
2020/12/05 06:19:46;;;;;;;14.77;7.55;;;3.50;97.50;;;;;;5031365;28;20221;-74
2020/12/05 06:23:03;;;;;;;16.88;8.52;;;3.40;97.40;;;;;;5032987;28;20624;-75
2020/12/05 06:25:30;;;;;;;15.48;8.75;;;3.40;97.40;;;;;;4966328;28;20427;-74
2020/12/05 06:28:01;;;;;;;13.30;7.72;;;3.40;97.50;;;;;;4972019;28;20202;-73
2020/12/05 06:30:27;;;;;;;13.77;6.18;;;3.40;97.60;;;;;;4972276;28;20199;-73
2020/12/05 06:32:55;;;;;;;12.00;6.30;;;3.30;97.70;;;;;;4975175;28;20195;-72
2020/12/05 06:35:23;;;;;;;13.98;6.85;;;3.30;97.80;;;;;;4958524;28;20264;-73
2020/12/05 06:37:54;;;;;;;13.27;6.90;;;3.30;97.90;;;;;;4987188;28;20186;-73
2020/12/05 06:40:20;;;;;;;13.95;6.82;;;3.30;97.90;;;;;;4976122;28;20222;-73
2020/12/05 06:42:49;;;;;;;19.48;7.10;;;3.30;97.90;;;;;;4990548;28;20215;-73
2020/12/05 06:45:26;;;;;;;13.18;6.70;;;3.30;97.90;;;;;;4958566;28;20194;-74
2020/12/05 06:48:15;;;;;;;12.07;7.38;;;3.30;98.00;;;;;;4972666;28;20326;-73
2020/12/05 06:50:45;;;;;;;13.93;8.10;;;3.30;97.90;;;;;;4956756;28;20208;-74
2020/12/05 06:53:20;;;;;;;16.58;8.05;;;3.30;97.80;;;;;;4985439;28;20191;-73
2020/12/05 06:55:47;;;;;;;13.95;7.85;;;3.30;98.00;;;;;;4989215;28;20249;-74
2020/12/05 06:58:13;;;;;;;13.65;6.95;;;3.30;98.10;;;;;;5005288;28;20257;-74
2020/12/05 07:00:40;;;;;;;10.83;5.80;;;3.30;98.10;;;;;;5001608;28;20225;-73
2020/12/05 07:03:11;;;;;;;14.82;7.38;;;3.30;98.00;;;;;;5017392;28;20425;-75
2020/12/05 07:05:46;;;;;;;10.68;6.05;;;3.30;97.80;;;;;;5024457;28;20192;-74
2020/12/05 07:08:23;;;;;;;10.63;5.03;;;3.20;97.80;;;;;;5033649;28;20220;-73
2020/12/05 07:10:59;;;;;;;12.07;6.50;;;3.30;97.80;;;;;;5033062;28;20287;-74
2020/12/05 07:13:28;;;;;;;10.65;6.07;;;3.30;97.90;;;;;;5033125;28;20184;-74
2020/12/05 07:16:16;;;;;;;13.82;7.15;;;3.30;98.00;;;;;;5030762;28;20192;-73
2020/12/05 07:18:59;;;;;;;11.85;5.80;;;3.30;98.00;;;;;;5022715;28;20297;-73
2020/12/05 07:21:27;;;;;;;12.88;6.78;;;3.40;98.10;;;;;;5031107;28;20278;-73
2020/12/05 07:23:54;;;;;;;12.38;6.35;;;3.40;97.90;;;;;;5026272;28;20329;-73
2020/12/05 07:26:20;;;;;;;10.43;4.70;;;3.40;97.90;;;;;;5023211;28;20193;-73
2020/12/05 07:28:53;;;;;;;14.47;6.90;;;3.40;97.80;;;;;;5024368;28;20217;-73
2020/12/05 07:31:20;;;;;;;10.68;5.75;;;3.30;97.70;;;;;;5030976;28;20428;-73
2020/12/05 07:33:46;;;;;;;11.45;6.40;;;3.30;97.70;;;;;;5028038;28;20178;-73
2020/12/05 07:36:14;;;;;;;11.82;6.43;;;3.30;97.80;;;;;;5018168;28;20189;-72
2020/12/05 07:38:45;;;;;;;11.85;6.38;;;3.30;97.80;;;;;;5023003;28;20193;-73
2020/12/05 07:41:19;;;;;;;9.40;6.07;;;3.30;98.10;;;;;;5023125;28;20255;-74
2020/12/05 07:43:46;;;;;;;12.95;7.30;;;3.40;98.20;;;;;;5025506;28;20197;-74
2020/12/05 07:46:15;;;;;;;10.75;5.80;;;3.40;98.40;;;;;;5021641;28;20328;-74
2020/12/05 07:48:41;;;;;;;11.82;6.55;;;3.50;98.20;;;;;;5019789;28;20706;-73
2020/12/05 07:51:17;;;;;;;12.43;6.13;;;3.50;98.00;;;;;;5023521;28;20178;-73
2020/12/05 07:53:45;;;;;;;13.75;7.00;;;3.40;97.90;;;;;;5024678;28;20185;-74
2020/12/05 07:56:19;;;;;;;12.13;6.28;;;3.30;97.90;;;;;;5024256;28;20181;-74
2020/12/05 07:58:56;;;;;;;13.70;6.72;;;3.30;98.10;;;;;;5024104;28;20221;-73
2020/12/05 08:01:38;;;;;;;12.75;7.00;;;3.30;98.10;;;;;;5028208;28;20192;-72
2020/12/05 08:04:25;;;;;;;12.93;7.03;;;3.30;98.20;;;;;;5025139;28;20193;-72
2020/12/05 08:07:04;;;;;;;13.45;6.97;;;3.30;98.20;;;;;;5029160;28;20189;-73
2020/12/05 08:09:38;;;;;;;12.63;6.35;;;3.30;98.30;;;;;;5035272;28;20292;-74
2020/12/05 08:12:10;;;;;;;12.00;6.70;;;3.40;98.40;;;;;;5032658;28;20173;-74
2020/12/05 08:14:37;;;;;;;15.77;6.18;;;3.40;98.50;;;;;;5030145;28;20188;-72
2020/12/05 08:17:05;;;;;;;11.10;6.40;;;3.40;98.40;;;;;;5024822;28;20190;-74
2020/12/05 08:19:32;;;;;;;9.57;6.22;;;3.40;98.40;;;;;;5031081;28;20201;-73
2020/12/05 08:22:08;;;;;;;14.13;6.95;;;3.50;98.40;;;;;;5030434;28;20193;-74
2020/12/05 08:24:47;;;;;;;11.52;6.50;;;3.60;98.40;;;;;;5023642;28;20184;-73
2020/12/05 08:27:14;;;;;;;14.73;6.35;;;3.70;98.20;;;;;;5023331;28;20213;-74
2020/12/05 08:29:41;;;;;;;11.02;5.40;;;3.70;97.90;;;;;;5018024;28;20201;-74
2020/12/05 08:32:07;;;;;;;9.65;5.70;;;3.70;97.50;;;;;;5021501;28;20265;-73
2020/12/05 08:34:33;;;;;;;10.07;5.43;;;3.80;97.20;;;;;;5031009;28;21014;-73
2020/12/05 08:37:01;;;;;;;9.20;5.60;;;3.80;97.20;;;;;;5035239;28;20443;-76
2020/12/05 08:39:32;;;;;;;10.40;5.30;;;3.80;97.20;;;;;;5034851;28;20224;-77
2020/12/05 08:41:58;;;;;;;9.45;4.82;;;3.90;97.20;;;;;;5039952;28;20189;-77
2020/12/05 08:44:28;;;;;;;7.93;4.60;;;3.90;97.30;;;;;;5037754;28;20210;-77
2020/12/05 08:47:08;;;;;;;9.32;4.75;;;4.10;97.20;;;;;;5033298;28;20443;-77
2020/12/05 08:49:43;;;;;;;6.77;4.10;;;4.10;96.90;;;;;;5024605;28;20212;-76
2020/12/05 08:52:10;;;;;;;9.70;4.50;;;4.20;96.00;;;;;;5030864;28;20936;-75
2020/12/05 08:54:48;;;;;;;11.00;5.10;;;4.30;95.70;;;;;;5043112;28;20503;-74
2020/12/05 08:57:15;;;;;;;6.95;4.05;;;4.40;95.60;;;;;;5021610;28;20459;-77
2020/12/05 08:59:42;;;;;;;7.55;3.72;;;4.40;95.00;;;;;;5019301;28;20206;-74
2020/12/05 09:02:09;;;;;;;7.03;4.20;;;4.40;94.60;;;;;;5056676;28;20617;-76
2020/12/05 09:04:36;;;;;;;7.53;3.83;;;4.50;94.50;;;;;;5030826;28;20420;-75
2020/12/05 09:07:09;;;;;;;10.17;4.77;;;4.50;94.50;;;;;;5018283;28;20208;-76
2020/12/05 09:09:35;;;;;;;7.47;3.77;;;4.60;94.60;;;;;;5014303;28;20455;-75
2020/12/05 09:12:09;;;;;;;8.63;3.60;;;4.70;94.90;;;;;;5011652;28;20421;-74
2020/12/05 09:14:35;;;;;;;6.30;3.30;;;4.80;95.20;;;;;;5058775;28;20439;-74
2020/12/05 09:17:02;;;;;;;7.03;3.53;;;4.80;95.00;;;;;;5030278;28;20477;-72
2020/12/05 09:19:30;;;;;;;8.63;4.10;;;4.90;94.60;;;;;;5029500;28;20562;-73
2020/12/05 09:21:56;;;;;;;8.20;3.90;;;4.90;94.60;;;;;;5030226;28;20439;-73
2020/12/05 09:24:22;;;;;;;11.27;4.87;;;4.90;94.70;;;;;;5024795;28;20572;-73
2020/12/05 09:26:58;;;;;;;10.00;5.00;;;4.90;94.80;;;;;;5030667;28;20432;-74
2020/12/05 09:29:24;;;;;;;17.10;6.33;;;4.90;94.90;;;;;;5016692;28;20463;-75
2020/12/05 09:31:52;;;;;;;10.80;5.13;;;4.90;94.70;;;;;;5029297;28;20497;-73
2020/12/05 09:34:37;;;;;;;19.03;6.60;;;4.90;94.50;;;;;;5028833;28;20290;-73
2020/12/05 09:37:13;;;;;;;17.17;7.23;;;5.00;94.20;;;;;;5030224;28;20419;-72
2020/12/05 09:39:39;;;;;;;13.70;6.63;;;4.90;94.10;;;;;;5030508;28;20443;-75
2020/12/05 09:42:05;;;;;;;10.20;6.45;;;4.80;93.70;;;;;;5030296;28;20419;-72
2020/12/05 09:44:32;;;;;;;14.75;7.18;;;4.80;93.60;;;;;;5030279;28;20205;-74
2020/12/05 09:47:00;;;;;;;15.40;6.53;;;4.80;93.80;;;;;;5029218;28;20213;-74
2020/12/05 09:49:26;;;;;;;12.63;6.60;;;4.70;93.60;;;;;;5030475;28;20444;-74
2020/12/05 09:51:51;;;;;;;13.63;6.90;;;4.60;93.70;;;;;;5019828;28;20445;-75
2020/12/05 09:54:17;;;;;;;12.53;7.40;;;4.60;94.00;;;;;;5026866;28;20204;-72
2020/12/05 09:56:43;;;;;;;12.73;7.10;;;4.60;94.00;;;;;;5030244;28;20193;-75
2020/12/05 09:59:08;;;;;;;15.00;7.63;;;4.60;94.00;;;;;;5030228;28;20707;-73
2020/12/05 10:01:34;;;;;;;11.50;7.27;;;4.70;94.10;;;;;;5021848;28;20182;-75
2020/12/05 10:04:00;;;;;;;14.23;6.70;;;4.80;94.00;;;;;;5032111;28;20185;-74
2020/12/05 10:06:27;;;;;;;16.47;8.57;;;4.70;93.90;;;;;;5018366;28;20193;-74
2020/12/05 10:08:53;;;;;;;13.17;7.87;;;4.70;93.80;;;;;;5023251;28;20517;-75
2020/12/05 10:11:19;;;;;;;12.10;7.30;;;4.70;93.90;;;;;;5019492;28;20760;-75
2020/12/05 10:13:44;;;;;;;17.70;9.20;;;4.70;94.30;;;;;;5024422;28;20497;-72
2020/12/05 10:16:10;;;;;;;13.87;8.63;;;4.70;94.50;;;;;;5021855;28;20660;-75
2020/12/05 10:18:36;;;;;;;13.40;8.03;;;4.70;94.50;;;;;;5023871;28;20194;-73
2020/12/05 10:21:01;;;;;;;13.27;7.80;;;4.80;94.30;;;;;;5020641;28;20189;-74
2020/12/05 10:23:27;;;;;;;14.50;8.17;;;4.80;94.00;;;;;;5023946;28;20189;-73
2020/12/05 10:25:53;;;;;;;14.27;8.50;;;4.80;94.20;;;;;;5017558;28;20596;-75
2020/12/05 10:28:19;;;;;;;14.67;8.50;;;4.80;94.30;;;;;;5027912;28;20220;-72
2020/12/05 10:30:44;;;;;;;12.93;8.13;;;4.90;94.40;;;;;;5028489;28;20201;-73
2020/12/05 10:33:10;;;;;;;19.53;9.73;;;4.90;94.20;;;;;;5062868;28;20193;-75
2020/12/05 10:35:35;;;;;;;13.50;8.67;;;5.00;93.90;;;;;;5033233;28;20191;-73
2020/12/05 10:38:01;;;;;;;15.77;8.10;;;5.00;93.50;;;;;;5024842;28;20200;-74
2020/12/05 10:40:28;;;;;;;19.47;10.30;;;4.90;93.40;;;;;;5033614;28;20719;-75
2020/12/05 10:42:54;;;;;;;16.13;9.73;;;4.90;93.50;;;;;;5030455;28;20197;-73
2020/12/05 10:45:20;;;;;;;18.47;9.80;;;4.90;93.70;;;;;;5025449;28;20535;-73
2020/12/05 10:47:46;;;;;;;16.30;9.70;;;4.90;93.70;;;;;;5032007;28;20277;-74
2020/12/05 10:50:12;;;;;;;17.07;9.60;;;4.90;93.80;;;;;;5026236;28;20806;-74
2020/12/05 10:52:37;;;;;;;18.33;10.40;;;4.90;93.90;;;;;;5017774;28;20181;-73
2020/12/05 10:55:03;;;;;;;16.30;9.00;;;4.90;94.00;;;;;;5029811;28;20436;-74
2020/12/05 10:57:29;;;;;;;14.60;8.87;;;4.80;93.90;;;;;;5034897;28;20192;-72
2020/12/05 10:59:55;;;;;;;18.17;9.60;;;4.80;93.90;;;;;;5030305;28;20214;-73
2020/12/05 11:02:20;;;;;;;18.20;9.80;;;4.80;93.90;;;;;;5024791;28;20194;-74
2020/12/05 11:04:46;;;;;;;17.00;9.10;;;4.60;93.60;;;;;;5031112;28;20683;-74
2020/12/05 11:07:12;;;;;;;14.53;8.87;;;4.60;94.00;;;;;;5033467;28;20220;-71
2020/12/05 11:09:37;;;;;;;14.67;8.53;;;4.60;94.00;;;;;;5033851;28;20298;-76
2020/12/05 11:12:03;;;;;;;15.93;8.97;;;4.50;94.00;;;;;;5033821;28;20235;-73
2020/12/05 11:14:29;;;;;;;19.80;9.60;;;4.50;94.00;;;;;;5032359;28;20209;-74
2020/12/05 11:16:54;;;;;;;18.80;9.43;;;4.50;94.40;;;;;;5033110;28;20192;-74
2020/12/05 11:19:20;;;;;;;15.87;10.20;;;4.60;94.70;;;;;;5032997;28;20234;-74
2020/12/05 11:21:46;;;;;;;17.60;10.03;;;4.70;94.80;;;;;;5032892;28;20256;-72
2020/12/05 11:24:12;;;;;;;17.50;9.80;;;4.80;94.70;;;;;;5033061;28;20177;-74
2020/12/05 11:26:37;;;;;;;17.53;8.97;;;4.90;94.60;;;;;;5032059;28;20269;-74
2020/12/05 11:29:04;;;;;;;15.27;8.57;;;4.90;94.50;;;;;;5032902;28;20990;-74
2020/12/05 11:31:31;;;;;;;15.53;8.57;;;5.10;94.20;;;;;;5031203;28;20192;-73
2020/12/05 11:33:56;;;;;;;14.80;8.47;;;5.10;93.50;;;;;;5013658;28;20511;-74
2020/12/05 11:36:22;;;;;;;15.20;8.30;;;5.10;93.20;;;;;;5058354;28;20435;-73
2020/12/05 11:38:48;;;;;;;17.20;9.20;;;5.30;93.50;;;;;;5031909;28;20215;-74
2020/12/05 11:41:13;;;;;;;13.63;8.50;;;5.40;93.30;;;;;;5032640;28;20317;-74
2020/12/05 11:43:39;;;;;;;18.20;8.93;;;5.40;93.10;;;;;;5032307;28;20201;-75
2020/12/05 11:46:06;;;;;;;20.30;8.43;;;5.50;93.00;;;;;;5030925;28;20216;-74
2020/12/05 11:48:31;;;;;;;15.10;8.70;;;5.50;92.30;;;;;;5031556;28;20615;-73
2020/12/05 11:50:57;;;;;;;17.50;9.00;;;5.50;92.00;;;;;;5031689;28;20428;-73
2020/12/05 11:53:23;;;;;;;15.23;7.77;;;5.60;92.20;;;;;;5031992;28;20185;-75
2020/12/05 11:55:49;;;;;;;15.53;7.90;;;5.60;92.20;;;;;;5029827;28;20196;-76
2020/12/05 11:58:15;;;;;;;15.70;8.13;;;5.60;92.10;;;;;;5031774;28;20683;-76
2020/12/05 12:00:40;;;;;;;16.50;8.23;;;5.60;92.20;;;;;;5031679;28;20531;-73
2020/12/05 12:03:06;;;;;;;16.77;9.27;;;5.70;92.30;;;;;;5036670;28;20869;-76
2020/12/05 12:05:32;;;;;;;16.23;8.63;;;5.70;92.30;;;;;;5031351;28;20193;-75
2020/12/05 12:07:57;;;;;;;14.70;7.87;;;5.80;92.20;;;;;;5032073;28;20331;-76
2020/12/05 12:10:26;;;;;;;14.50;8.40;;;5.80;92.10;;;;;;5032086;28;20196;-74
2020/12/05 12:12:51;;;;;;;15.53;8.03;;;5.80;92.10;;;;;;5032047;28;20181;-74
2020/12/05 12:15:17;;;;;;;15.57;8.73;;;5.90;92.20;;;;;;5028276;28;20582;-75
2020/12/05 12:17:43;;;;;;;18.73;8.23;;;5.90;92.10;;;;;;5033754;28;20197;-75
2020/12/05 12:20:10;;;;;;;17.03;8.37;;;5.90;91.90;;;;;;5034067;28;20652;-75
2020/12/05 12:22:36;;;;;;;11.77;7.33;;;5.90;91.10;;;;;;5038025;28;20264;-74
2020/12/05 12:25:02;;;;;;;16.13;7.10;;;5.60;91.30;;;;;;5038208;28;20459;-74
2020/12/05 12:27:28;;;;;;;12.87;7.33;;;5.60;91.80;;;;;;5040428;28;20258;-74
2020/12/05 12:29:54;;;;;;;12.67;6.90;;;5.60;92.30;;;;;;5031094;28;20455;-75
2020/12/05 12:32:19;;;;;;;11.70;6.77;;;5.70;92.30;;;;;;5031002;28;20185;-76
2020/12/05 12:34:45;;;;;;;11.37;7.07;;;5.70;92.00;;;;;;5030949;28;20187;-74
2020/12/05 12:37:11;;;;;;;15.47;8.40;;;5.80;91.80;;;;;;5030781;28;20593;-73
2020/12/05 12:39:37;;;;;;;13.70;8.00;;;5.80;91.70;;;;;;5031184;28;20448;-76
2020/12/05 12:42:03;;;;;;;11.77;6.70;;;5.70;92.00;;;;;;5031433;28;20581;-76
2020/12/05 12:44:28;;;;;;;14.10;7.10;;;5.80;92.10;;;;;;5029537;28;20201;-75
2020/12/05 12:49:36;;;;;;;13.63;7.67;;;5.90;91.70;;;;;;5030935;28;20208;-75
2020/12/05 12:52:09;;;;;;;13.90;7.20;;;5.80;91.10;;;;;;5031033;28;20425;-75
2020/12/05 12:54:35;;;;;;;16.70;7.57;;;5.70;91.20;;;;;;5030884;28;20420;-76